Terminal Aerodrome Forecast
Issued by NWS

Home | Current Version | Previous Version | Text Only | Print | Product List | Glossary On
Versions: 1 2 3 4 5 6 7 8 9 10 11 12 13 14 15
238
FTAK31 PAJN 260545 RRA
TAFAGY
TAF
PAGY 260545Z 2606/2706 21007KT P6SM OVC050
     FM261900 22012G20KT P6SM OVC035 PROB30 2620/2702 -RA OVC030
     FM270200 21010G18KT P6SM -RA OVC030
      AMD LTD TO CLD VIS AND WIND=

USA.gov is the U.S. government's official web portal to all federal, state and local government web resources and services.